Time;durP1;ratioP1;P1;durP2;ratioP2;P2;SDS_P1;SDS_P2;PMS_P1;PMS_P2;Temp;Humidity;BMP_temperature;BMP_pressure;BME280_temperature;BME280_humidity;BME280_pressure;Samples;Min_cycle;Max_cycle;Signal;HPM_P1;HPM_P2
2023/04/22 00:02:07;;;;;;;9.20;5.20;;;;;;;9.05;100.00;100915.66;4965264;28;21806;-73
2023/04/22 00:04:33;;;;;;;7.82;5.45;;;;;;;9.01;100.00;100922.84;4985818;28;20165;-73
2023/04/22 00:06:59;;;;;;;11.18;5.22;;;;;;;8.97;100.00;100913.28;4983925;28;20156;-73
2023/04/22 00:09:25;;;;;;;7.65;5.03;;;;;;;8.93;100.00;100917.00;4979111;28;20041;-72
2023/04/22 00:11:51;;;;;;;8.35;5.72;;;;;;;8.91;100.00;100913.53;4982955;28;20152;-73
2023/04/22 00:14:17;;;;;;;11.13;5.72;;;;;;;8.91;100.00;100911.75;4984683;28;20125;-72
2023/04/22 00:16:43;;;;;;;7.07;5.18;;;;;;;8.85;100.00;100903.19;4998244;28;20097;-73
2023/04/22 00:19:08;;;;;;;10.73;5.47;;;;;;;8.81;100.00;100898.03;4984683;28;22077;-72
2023/04/22 00:21:36;;;;;;;9.02;5.03;;;;;;;8.79;100.00;100893.72;4984151;28;20088;-72
2023/04/22 00:24:02;;;;;;;8.63;5.78;;;;;;;8.78;100.00;100892.84;4979779;28;20058;-73
2023/04/22 00:26:27;;;;;;;7.88;4.97;;;;;;;8.75;100.00;100887.69;4983811;28;20063;-73
2023/04/22 00:28:53;;;;;;;7.82;5.68;;;;;;;8.71;100.00;100886.06;4983829;28;20034;-73
2023/04/22 00:31:18;;;;;;;9.25;5.80;;;;;;;8.67;100.00;100884.50;4998249;28;20061;-72
2023/04/22 00:33:44;;;;;;;8.60;5.47;;;;;;;8.60;100.00;100893.56;4983079;28;20042;-72
2023/04/22 00:36:10;;;;;;;9.95;5.60;;;;;;;8.54;100.00;100887.56;4983530;28;20046;-72
2023/04/22 00:38:35;;;;;;;11.70;6.25;;;;;;;8.49;100.00;100888.63;4969032;28;20034;-73
2023/04/22 00:41:01;;;;;;;9.82;5.85;;;;;;;8.47;100.00;100901.88;4981565;28;20042;-72
2023/04/22 00:43:27;;;;;;;8.70;5.80;;;;;;;8.46;100.00;100891.38;4985129;28;20850;-72
2023/04/22 00:45:53;;;;;;;7.75;5.68;;;;;;;8.42;100.00;100895.88;4985027;28;20033;-73
2023/04/22 00:48:18;;;;;;;7.25;5.30;;;;;;;8.36;100.00;100889.06;4982732;28;20034;-72
2023/04/22 00:50:44;;;;;;;9.00;6.05;;;;;;;8.32;100.00;100890.06;4985108;28;20115;-73
2023/04/22 00:53:10;;;;;;;10.10;6.00;;;;;;;8.29;100.00;100890.19;4982123;28;20045;-73
2023/04/22 00:55:36;;;;;;;9.48;5.75;;;;;;;8.26;100.00;100887.66;4964559;28;20040;-73
2023/04/22 00:58:02;;;;;;;8.60;5.95;;;;;;;8.20;100.00;100879.94;4996682;28;20069;-72
2023/04/22 01:00:29;;;;;;;9.20;5.82;;;;;;;8.17;100.00;100888.81;4961496;28;20053;-72
2023/04/22 01:02:56;;;;;;;11.10;6.15;;;;;;;8.13;100.00;100879.31;4966718;28;20127;-72
2023/04/22 01:05:23;;;;;;;11.43;6.25;;;;;;;8.12;100.00;100890.78;4982956;28;20038;-72
2023/04/22 01:07:49;;;;;;;13.38;6.93;;;;;;;8.11;100.00;100894.31;4983264;28;20038;-72
2023/04/22 01:10:16;;;;;;;13.85;7.45;;;;;;;8.09;100.00;100886.47;4965238;28;20133;-72
2023/04/22 01:12:41;;;;;;;14.90;8.23;;;;;;;8.09;100.00;100888.22;4951292;28;20058;-72
2023/04/22 01:15:07;;;;;;;11.90;7.35;;;;;;;8.09;100.00;100890.88;4985764;28;20046;-72
2023/04/22 01:17:33;;;;;;;15.50;7.75;;;;;;;8.08;100.00;100905.84;4982317;28;20099;-72
2023/04/22 01:19:59;;;;;;;13.13;8.30;;;;;;;8.08;100.00;100897.94;4982168;28;20103;-72
2023/04/22 01:22:32;;;;;;;11.15;7.70;;;;;;;8.06;100.00;100880.44;4982898;28;20499;-72
2023/04/22 01:25:01;;;;;;;11.00;7.68;;;;;;;8.03;100.00;100878.78;4980100;28;20045;-73
2023/04/22 01:27:27;;;;;;;12.93;8.00;;;;;;;8.02;100.00;100874.41;4967446;28;20081;-73
2023/04/22 01:29:53;;;;;;;13.32;8.70;;;;;;;7.99;100.00;100869.22;4982464;28;20265;-73
2023/04/22 01:32:19;;;;;;;13.57;8.35;;;;;;;7.95;100.00;100865.84;4980953;28;20135;-73
2023/04/22 01:34:44;;;;;;;14.07;7.97;;;;;;;7.93;100.00;100872.06;4979300;28;20529;-73
2023/04/22 01:37:10;;;;;;;12.65;7.97;;;;;;;7.88;100.00;100864.31;4995486;28;20049;-73
2023/04/22 01:39:36;;;;;;;12.40;8.25;;;;;;;7.86;100.00;100869.63;4983195;28;20168;-73
2023/04/22 01:42:02;;;;;;;11.73;7.70;;;;;;;7.84;100.00;100868.00;4984542;28;20157;-72
2023/04/22 01:44:27;;;;;;;12.77;7.85;;;;;;;7.80;100.00;100874.28;4980991;28;20045;-72
2023/04/22 01:46:53;;;;;;;13.45;7.75;;;;;;;7.75;100.00;100875.28;4980995;28;20151;-73
2023/04/22 01:49:19;;;;;;;12.13;7.60;;;;;;;7.73;100.00;100873.59;4981067;28;20048;-73
2023/04/22 01:51:45;;;;;;;13.23;8.27;;;;;;;7.71;100.00;100871.03;4998976;28;20077;-73
2023/04/22 01:54:10;;;;;;;10.70;6.80;;;;;;;7.67;100.00;100872.03;4984258;28;20045;-73
2023/04/22 01:56:37;;;;;;;12.07;7.72;;;;;;;7.64;100.00;100872.16;4984217;28;20060;-72
2023/04/22 01:59:03;;;;;;;12.52;7.90;;;;;;;7.60;100.00;100871.38;4965861;28;20038;-72
2023/04/22 02:01:29;;;;;;;12.05;7.22;;;;;;;7.57;100.00;100868.84;4981572;28;20061;-72
2023/04/22 02:03:54;;;;;;;13.15;7.80;;;;;;;7.54;100.00;100871.59;4983779;28;21421;-73
2023/04/22 02:06:20;;;;;;;12.43;7.28;;;;;;;7.51;100.00;100866.41;4982681;28;21331;-73
2023/04/22 02:08:45;;;;;;;9.70;7.03;;;;;;;7.50;100.00;100869.06;4979295;28;20049;-73
2023/04/22 02:11:11;;;;;;;10.85;7.40;;;;;;;7.47;100.00;100876.19;4983013;28;20033;-73
2023/04/22 02:13:38;;;;;;;11.52;7.97;;;;;;;7.44;100.00;100865.75;4987723;28;20037;-73
2023/04/22 02:16:04;;;;;;;12.85;7.57;;;;;;;7.44;100.00;100862.25;4983507;28;20044;-72
2023/04/22 02:18:29;;;;;;;9.07;6.70;;;;;;;7.45;100.00;100862.19;4985068;28;20040;-73
2023/04/22 02:20:55;;;;;;;10.80;7.10;;;;;;;7.44;100.00;100857.84;4985413;28;20433;-73
2023/04/22 02:23:21;;;;;;;12.82;7.35;;;;;;;7.45;100.00;100863.97;4984481;28;20037;-73
2023/04/22 02:25:51;;;;;;;13.43;7.85;;;;;;;7.45;100.00;100864.84;4998120;28;20042;-72
2023/04/22 02:28:17;;;;;;;13.98;8.50;;;;;;;7.47;100.00;100857.72;4985739;28;20163;-73
2023/04/22 02:30:42;;;;;;;14.23;8.63;;;;;;;7.46;100.00;100858.66;4995984;28;20521;-73
2023/04/22 02:33:08;;;;;;;13.13;8.38;;;;;;;7.45;100.00;100851.66;4985642;28;20037;-73
2023/04/22 02:35:33;;;;;;;12.95;8.02;;;;;;;7.45;100.00;100851.66;4986548;28;20101;-73
2023/04/22 02:37:59;;;;;;;13.38;8.00;;;;;;;7.43;100.00;100853.50;4984733;28;20409;-73
2023/04/22 02:40:24;;;;;;;13.77;8.30;;;;;;;7.41;100.00;100854.44;4989017;28;20125;-72
2023/04/22 02:42:50;;;;;;;13.18;8.30;;;;;;;7.39;100.00;100846.59;4985802;28;20188;-73
2023/04/22 02:45:15;;;;;;;13.52;8.38;;;;;;;7.39;100.00;100845.72;4988468;28;20477;-73
2023/04/22 02:47:41;;;;;;;12.98;7.93;;;;;;;7.37;100.00;100850.19;4983871;28;20512;-73
2023/04/22 02:50:07;;;;;;;10.20;7.68;;;;;;;7.36;100.00;100841.44;4987356;28;20030;-73
2023/04/22 02:52:33;;;;;;;12.95;7.82;;;;;;;7.34;100.00;100835.34;5000661;28;20034;-72
2023/04/22 02:55:00;;;;;;;11.60;7.90;;;;;;;7.34;100.00;100841.47;4975360;28;20109;-72
2023/04/22 02:57:25;;;;;;;10.95;7.10;;;;;;;7.34;100.00;100835.34;4988038;28;20034;-72
2023/04/22 02:59:52;;;;;;;15.05;7.82;;;;;;;7.33;100.00;100830.97;4986961;28;20038;-72
2023/04/22 03:02:17;;;;;;;13.10;8.05;;;;;;;7.32;100.00;100826.63;4980742;28;20807;-73
2023/04/22 03:04:43;;;;;;;12.98;7.10;;;;;;;7.30;100.00;100823.19;4987607;28;20038;-72
2023/04/22 03:07:09;;;;;;;11.57;7.55;;;;;;;7.28;100.00;100830.25;4987863;28;20120;-73
2023/04/22 03:09:34;;;;;;;11.80;7.28;;;;;;;7.27;100.00;100823.28;4986261;28;21506;-72
2023/04/22 03:12:01;;;;;;;11.48;7.43;;;;;;;7.26;100.00;100816.28;4966770;28;20314;-72
2023/04/22 03:14:26;;;;;;;12.48;7.25;;;;;;;7.24;100.00;100820.75;4988772;28;20041;-73
2023/04/22 03:16:52;;;;;;;10.65;6.90;;;;;;;7.23;100.00;100824.31;4985307;28;20054;-72
2023/04/22 03:19:18;;;;;;;15.18;7.85;;;;;;;7.21;100.00;100816.44;4987316;28;20050;-72
2023/04/22 03:21:43;;;;;;;11.38;7.30;;;;;;;7.22;100.00;100822.56;4986046;28;20145;-72
2023/04/22 03:24:09;;;;;;;15.07;7.85;;;;;;;7.20;100.00;100820.84;4983597;28;20038;-73
2023/04/22 03:26:34;;;;;;;10.65;7.43;;;;;;;7.19;100.00;100816.47;4986334;28;20489;-73
2023/04/22 03:29:00;;;;;;;12.00;7.32;;;;;;;7.19;100.00;100815.59;4984828;28;20112;-73
2023/04/22 03:31:26;;;;;;;11.10;7.40;;;;;;;7.16;100.00;100819.22;4978812;28;20045;-73
2023/04/22 03:33:52;;;;;;;12.77;8.00;;;;;;;7.11;100.00;100815.88;4985448;28;20448;-73
2023/04/22 03:36:17;;;;;;;11.07;7.82;;;;;;;7.07;100.00;100814.22;4986651;28;20060;-73
2023/04/22 03:38:43;;;;;;;13.95;7.38;;;;;;;7.02;100.00;100805.59;4986065;28;20572;-73
2023/04/22 03:41:08;;;;;;;9.77;7.28;;;;;;;6.96;100.00;100800.56;4986206;28;20489;-73
2023/04/22 03:43:34;;;;;;;13.05;7.63;;;;;;;6.91;100.00;100798.03;4985507;28;20035;-73
2023/04/22 03:45:59;;;;;;;12.80;7.10;;;;;;;6.88;100.00;100800.78;4985383;28;20642;-73
2023/04/22 03:48:25;;;;;;;12.63;6.97;;;;;;;6.86;100.00;100795.56;4983686;28;20527;-73
2023/04/22 03:50:51;;;;;;;11.75;7.30;;;;;;;6.79;100.00;100794.03;4985025;28;20049;-73
2023/04/22 03:53:17;;;;;;;12.05;6.75;;;;;;;6.72;100.00;100781.97;4980685;28;21070;-72
2023/04/22 03:55:42;;;;;;;17.15;7.38;;;;;;;6.68;100.00;100780.31;4986484;28;20030;-72
2023/04/22 03:58:08;;;;;;;12.73;6.70;;;;;;;6.64;100.00;100783.06;4987476;28;20033;-72
2023/04/22 04:00:33;;;;;;;10.32;6.35;;;;;;;6.60;100.00;100789.31;4985457;28;20049;-73
2023/04/22 04:02:59;;;;;;;14.77;6.53;;;;;;;6.55;100.00;100775.44;4982330;28;20037;-73
2023/04/22 04:05:25;;;;;;;17.60;6.00;;;;;;;6.52;100.00;100772.91;4986048;28;20029;-72
2023/04/22 04:07:50;;;;;;;11.40;5.95;;;;;;;6.47;100.00;100766.91;4983914;28;20687;-72
2023/04/22 04:10:16;;;;;;;34.08;6.22;;;;;;;6.39;100.00;100760.09;4986313;28;20579;-72
2023/04/22 04:12:41;;;;;;;18.45;5.10;;;;;;;6.32;100.00;100765.59;4983448;28;20044;-73
2023/04/22 04:15:07;;;;;;;7.13;5.13;;;;;;;6.29;100.00;100770.94;4986260;28;20045;-73
2023/04/22 04:17:33;;;;;;;7.35;5.05;;;;;;;6.24;100.00;100765.81;4985989;28;20049;-72
2023/04/22 04:19:58;;;;;;;23.63;5.47;;;;;;;6.22;100.00;100754.50;4985330;28;20046;-73
2023/04/22 04:22:24;;;;;;;16.73;5.30;;;;;;;6.16;100.00;100752.88;4981828;28;20916;-72
2023/04/22 04:24:51;;;;;;;16.25;5.22;;;;;;;6.10;100.00;100760.97;4983911;28;20038;-72
2023/04/22 04:27:16;;;;;;;6.40;4.93;;;;;;;6.04;100.00;100764.59;5001523;28;20038;-73
2023/04/22 04:29:42;;;;;;;7.20;5.05;;;;;;;6.04;100.00;100764.59;4985858;28;20042;-73
2023/04/22 04:32:08;;;;;;;7.60;5.07;;;;;;;6.04;100.00;100767.22;4984358;28;20489;-73
2023/04/22 04:34:34;;;;;;;8.80;5.00;;;;;;;6.02;100.00;100765.50;4984756;28;20610;-73
2023/04/22 04:36:59;;;;;;;9.40;5.25;;;;;;;6.01;100.00;100764.66;4985077;28;20049;-72
2023/04/22 04:39:28;;;;;;;7.55;4.80;;;;;;;5.99;100.00;100769.09;4986899;28;20524;-72
2023/04/22 04:41:54;;;;;;;11.55;5.35;;;;;;;5.98;100.00;100770.00;4982907;28;20038;-72
2023/04/22 04:44:22;;;;;;;15.43;5.38;;;;;;;5.96;100.00;100769.19;4967083;28;20075;-73
2023/04/22 04:46:49;;;;;;;6.68;5.55;;;;;;;5.92;100.00;100770.16;4983684;28;20096;-73
2023/04/22 04:49:15;;;;;;;10.88;5.43;;;;;;;5.89;100.00;100771.09;4985487;28;20046;-73
2023/04/22 04:51:44;;;;;;;18.73;5.70;;;;;;;5.89;100.00;100772.88;4984973;28;20069;-72
2023/04/22 04:54:09;;;;;;;18.55;5.50;;;;;;;5.89;100.00;100770.25;4983671;28;20045;-73
2023/04/22 04:56:35;;;;;;;22.92;6.00;;;;;;;5.88;100.00;100768.53;4986646;28;20493;-72
2023/04/22 04:59:03;;;;;;;19.60;6.40;;;;;;;5.87;100.00;100764.19;4985785;28;20038;-73
2023/04/22 05:01:28;;;;;;;19.05;5.63;;;;;;;5.87;100.00;100770.28;4982313;28;20041;-72
2023/04/22 05:03:54;;;;;;;10.13;6.07;;;;;;;5.89;100.00;100765.84;4998453;28;20042;-72
2023/04/22 05:06:20;;;;;;;13.88;5.97;;;;;;;5.90;100.00;100762.34;4984532;28;20046;-72
2023/04/22 05:08:45;;;;;;;15.63;5.75;;;;;;;5.91;100.00;100771.94;4980121;28;20030;-72
2023/04/22 05:11:11;;;;;;;7.10;5.70;;;;;;;5.92;100.00;100764.91;4981903;28;20516;-72
2023/04/22 05:13:36;;;;;;;8.25;5.65;;;;;;;5.94;100.00;100763.97;4985131;28;21782;-73
2023/04/22 05:16:02;;;;;;;9.05;5.82;;;;;;;5.92;100.00;100771.03;4984070;28;20718;-72
2023/04/22 05:18:28;;;;;;;13.10;6.38;;;;;;;5.96;100.00;100766.56;4982746;28;20049;-72
2023/04/22 05:20:54;;;;;;;8.77;6.00;;;;;;;5.98;100.00;100776.13;4983569;28;20046;-72
2023/04/22 05:23:19;;;;;;;17.13;6.68;;;;;;;5.99;100.00;100771.72;4984661;28;20588;-72
2023/04/22 05:25:45;;;;;;;12.18;6.50;;;;;;;5.97;100.00;100769.16;4985859;28;20041;-72
2023/04/22 05:28:10;;;;;;;12.00;6.47;;;;;;;5.99;100.00;100771.72;4986367;28;20052;-73
2023/04/22 05:30:36;;;;;;;11.05;7.10;;;;;;;6.02;100.00;100771.69;4986072;28;20768;-72
2023/04/22 05:33:01;;;;;;;10.52;7.13;;;;;;;6.05;100.00;100774.22;4984506;28;20581;-72
2023/04/22 05:35:27;;;;;;;11.07;7.18;;;;;;;6.06;100.00;100768.03;4986095;28;20046;-73
2023/04/22 05:37:53;;;;;;;16.10;7.57;;;;;;;6.10;100.00;100769.69;4970013;28;20026;-72
2023/04/22 05:40:19;;;;;;;13.43;7.05;;;;;;;6.11;100.00;100771.41;4984485;28;20030;-73
2023/04/22 05:42:44;;;;;;;12.05;6.50;;;;;;;6.15;100.00;100779.22;4985327;28;20046;-72
2023/04/22 05:45:10;;;;;;;10.10;6.78;;;;;;;6.18;100.00;100781.75;4985124;28;20542;-73
2023/04/22 05:47:35;;;;;;;10.95;7.40;;;;;;;6.22;100.00;100783.41;4987032;28;20041;-73
2023/04/22 05:50:02;;;;;;;10.57;7.28;;;;;;;6.23;100.00;100787.75;4989451;28;20037;-73
2023/04/22 05:52:28;;;;;;;9.70;7.05;;;;;;;6.25;100.00;100788.56;4983646;28;21978;-73
2023/04/22 05:54:53;;;;;;;12.32;7.35;;;;;;;6.30;100.00;100776.16;4989358;28;20045;-73
2023/04/22 05:57:19;;;;;;;9.93;6.78;;;;;;;6.35;100.00;100774.25;4989127;28;20088;-72
2023/04/22 05:59:45;;;;;;;10.30;6.85;;;;;;;6.41;100.00;100778.47;4989735;28;20045;-72
2023/04/22 06:02:10;;;;;;;11.75;7.60;;;;;;;6.49;100.00;100781.72;4990043;28;20034;-73
2023/04/22 06:04:36;;;;;;;38.83;8.88;;;;;;;6.56;100.00;100784.19;4997781;28;20037;-73
2023/04/22 06:07:01;;;;;;;27.05;8.15;;;;;;;6.64;100.00;100784.81;4969352;28;20068;-72
2023/04/22 06:09:27;;;;;;;27.38;8.70;;;;;;;6.69;100.00;100777.66;4988220;28;20064;-72
2023/04/22 06:11:52;;;;;;;11.75;8.05;;;;;;;6.80;100.00;100774.69;4988719;28;20046;-73
2023/04/22 06:14:18;;;;;;;11.85;7.32;;;;;;;6.92;100.00;100782.22;4986048;28;20116;-72
2023/04/22 06:16:44;;;;;;;10.98;7.75;;;;;;;7.05;100.00;100784.47;5004242;28;20046;-72
2023/04/22 06:19:28;;;;;;;12.18;7.18;;;;;;;7.22;100.00;100777.78;4987219;28;20033;-72
2023/04/22 06:21:54;;;;;;;32.15;9.40;;;;;;;7.30;100.00;100778.41;4985198;28;20128;-72
2023/04/22 06:24:21;;;;;;;12.43;8.15;;;;;;;7.35;100.00;100776.47;4988125;28;20200;-73
2023/04/22 06:26:46;;;;;;;15.10;8.77;;;;;;;7.40;100.00;100779.81;4987624;28;20163;-72
2023/04/22 06:29:12;;;;;;;17.35;8.85;;;;;;;7.43;100.00;100779.75;4987624;28;20489;-72
2023/04/22 06:31:38;;;;;;;15.90;9.57;;;;;;;7.47;100.00;100773.44;4986083;28;20050;-72
2023/04/22 06:34:04;;;;;;;14.77;9.25;;;;;;;7.50;100.00;100774.22;4987401;28;21314;-72
2023/04/22 06:36:30;;;;;;;14.45;8.48;;;;;;;7.50;100.00;100775.09;4987062;28;20038;-72
2023/04/22 06:38:56;;;;;;;15.38;9.07;;;;;;;7.58;100.00;100780.13;4986789;28;20168;-72
2023/04/22 06:41:22;;;;;;;15.50;8.82;;;;;;;7.68;100.00;100778.88;4988726;28;20022;-72
2023/04/22 06:43:50;;;;;;;13.15;9.05;;;;;;;7.77;100.00;100782.09;4988546;28;20437;-72
2023/04/22 06:46:16;;;;;;;15.18;9.10;;;;;;;7.83;100.00;100782.78;4988793;28;20509;-72
2023/04/22 06:48:41;;;;;;;16.40;9.93;;;;;;;7.89;100.00;100771.16;4987808;28;20120;-72
2023/04/22 06:51:07;;;;;;;16.08;10.20;;;;;;;7.96;100.00;100764.72;4987759;28;20037;-72
2023/04/22 06:53:33;;;;;;;16.35;10.00;;;;;;;8.04;100.00;100768.88;4986255;28;20519;-72
2023/04/22 06:55:58;;;;;;;17.85;10.88;;;;;;;8.11;100.00;100759.81;5000925;28;20421;-72
2023/04/22 06:58:24;;;;;;;19.00;11.13;;;;;;;8.17;100.00;100754.31;4999875;28;20419;-72
2023/04/22 07:00:49;;;;;;;18.48;11.48;;;;;;;8.24;100.00;100760.25;4988145;28;20161;-72
2023/04/22 07:03:15;;;;;;;20.88;12.05;;;;;;;8.33;100.00;100751.97;4987492;28;20069;-72
2023/04/22 07:05:40;;;;;;;22.65;13.30;;;;;;;8.44;100.00;100751.56;4986456;28;20120;-71
2023/04/22 07:08:06;;;;;;;22.83;13.88;;;;;;;8.52;100.00;100748.69;4987036;28;20049;-71
2023/04/22 07:10:32;;;;;;;23.48;14.20;;;;;;;8.59;100.00;100733.47;4986907;28;20029;-71
2023/04/22 07:12:57;;;;;;;21.83;13.43;;;;;;;8.70;100.00;100736.56;4983510;28;20042;-71
2023/04/22 07:15:23;;;;;;;24.70;14.25;;;;;;;8.79;100.00;100736.22;5000916;28;20160;-71
2023/04/22 07:17:49;;;;;;;24.27;13.38;;;;;;;8.85;100.00;100739.50;4982364;28;20115;-71
2023/04/22 07:20:14;;;;;;;24.65;14.48;;;;;;;8.89;100.00;100738.47;4986747;28;20042;-71
2023/04/22 07:22:40;;;;;;;20.13;12.95;;;;;;;8.90;100.00;100737.53;4983674;28;20053;-71
2023/04/22 07:25:06;;;;;;;24.60;14.30;;;;;;;8.92;100.00;100738.34;4983725;28;20535;-71
2023/04/22 07:27:34;;;;;;;21.38;12.43;;;;;;;8.96;100.00;100738.16;4985400;28;20496;-71
2023/04/22 07:29:59;;;;;;;21.95;12.55;;;;;;;9.04;100.00;100729.91;4986101;28;20045;-73
2023/04/22 07:32:25;;;;;;;19.23;12.43;;;;;;;9.14;100.00;100724.28;4985425;28;20059;-71
2023/04/22 07:34:50;;;;;;;21.67;12.82;;;;;;;9.23;100.00;100719.47;4984337;28;20049;-71
2023/04/22 07:37:16;;;;;;;20.80;12.85;;;;;;;9.33;100.00;100719.91;4967558;28;20096;-71
2023/04/22 07:39:41;;;;;;;20.75;12.30;;;;;;;9.38;100.00;100722.38;5000046;28;20741;-71
2023/04/22 07:42:07;;;;;;;20.92;12.30;;;;;;;9.39;100.00;100732.03;4984133;28;20664;-71
2023/04/22 07:44:33;;;;;;;19.52;11.73;;;;;;;9.46;100.00;100730.84;4983191;28;20504;-71
2023/04/22 07:46:59;;;;;;;21.23;12.15;;;;;;;9.48;100.00;100717.56;4985485;28;20030;-71
2023/04/22 07:49:24;;;;;;;17.83;11.45;;;;;;;9.59;100.00;100715.31;4985217;28;20051;-71
2023/04/22 07:51:50;;;;;;;21.67;13.23;;;;;;;9.67;100.00;100716.75;4983674;28;20052;-71
2023/04/22 07:54:16;;;;;;;24.45;14.50;;;;;;;9.76;100.00;100708.44;4981386;28;20104;-71
2023/04/22 07:56:41;;;;;;;24.23;13.98;;;;;;;9.85;100.00;100718.59;4983193;28;20164;-71
2023/04/22 07:59:07;;;;;;;21.90;13.48;;;;;;;9.99;100.00;100718.00;4985578;28;20049;-71
2023/04/22 08:01:33;;;;;;;23.05;13.90;;;;;;;10.08;100.00;100715.84;4984703;28;20038;-71
2023/04/22 08:03:58;;;;;;;23.45;14.43;;;;;;;10.21;100.00;100708.19;4984381;28;20037;-71
2023/04/22 08:06:24;;;;;;;25.13;14.48;;;;;;;10.32;100.00;100698.84;4997706;28;20041;-74
2023/04/22 08:08:49;;;;;;;28.00;14.73;;;;;;;10.42;100.00;100701.94;4963113;28;20576;-74
2023/04/22 08:11:15;;;;;;;23.92;14.45;;;;;;;10.53;100.00;100685.56;4983744;28;20041;-74
2023/04/22 08:13:40;;;;;;;24.27;14.65;;;;;;;10.69;100.00;100685.66;4982829;28;20053;-74
2023/04/22 08:16:06;;;;;;;22.70;13.77;;;;;;;10.78;100.00;100684.38;4950786;28;20389;-74
2023/04/22 08:18:31;;;;;;;22.65;13.75;;;;;;;10.88;100.00;100684.78;4984943;28;20053;-74
2023/04/22 08:20:57;;;;;;;22.52;13.77;;;;;;;10.94;100.00;100679.19;4982822;28;20037;-74
2023/04/22 08:23:23;;;;;;;22.67;13.23;;;;;;;11.01;100.00;100690.34;4983007;28;20951;-74
2023/04/22 08:25:48;;;;;;;21.30;13.32;;;;;;;11.09;100.00;100685.50;4983830;28;20046;-74
2023/04/22 08:28:14;;;;;;;18.92;11.75;;;;;;;11.18;100.00;100692.16;4981256;28;20068;-74
2023/04/22 08:30:39;;;;;;;18.58;11.77;;;;;;;11.25;100.00;100701.50;4985705;28;20029;-74
2023/04/22 08:33:05;;;;;;;19.23;12.32;;;;;;;11.33;100.00;100700.25;4997554;28;20040;-74
2023/04/22 08:35:33;;;;;;;18.90;12.27;;;;;;;11.42;100.00;100699.75;4998285;28;20334;-74
2023/04/22 08:37:59;;;;;;;20.58;13.45;;;;;;;11.57;100.00;100707.84;4981816;28;20022;-74
2023/04/22 08:40:24;;;;;;;19.40;12.95;;;;;;;11.72;100.00;100703.56;4984298;28;20124;-74
2023/04/22 08:42:51;;;;;;;19.35;12.23;;;;;;;11.85;100.00;100703.75;4949258;28;20087;-74
2023/04/22 08:45:17;;;;;;;22.10;12.75;;;;;;;12.05;100.00;100703.56;4981619;28;20160;-74
2023/04/22 08:47:42;;;;;;;21.42;13.13;;;;;;;12.27;100.00;100707.75;4995566;28;20042;-73
2023/04/22 08:50:08;;;;;;;21.52;12.65;;;;;;;12.44;100.00;100700.63;4983117;28;20104;-74
2023/04/22 08:52:34;;;;;;;20.48;12.95;;;;;;;12.54;100.00;100704.50;4979183;28;20064;-74
2023/04/22 08:55:00;;;;;;;18.95;12.32;;;;;;;12.65;100.00;100705.69;4995373;28;20588;-74
2023/04/22 08:57:26;;;;;;;22.42;12.90;;;;;;;12.85;100.00;100710.72;4983213;28;20037;-74
2023/04/22 08:59:54;;;;;;;20.42;12.30;;;;;;;13.00;100.00;100716.97;4965897;28;20050;-74
2023/04/22 09:02:20;;;;;;;20.30;12.18;;;;;;;13.12;100.00;100710.06;4982536;28;20034;-74
2023/04/22 09:04:47;;;;;;;20.75;12.95;;;;;;;13.14;100.00;100702.84;4996579;28;20042;-71
2023/04/22 09:07:19;;;;;;;19.35;11.70;;;;;;;13.21;100.00;100697.19;4978923;28;20096;-73
2023/04/22 09:09:45;;;;;;;18.35;12.15;;;;;;;13.33;100.00;100695.63;4983892;28;20030;-74
2023/04/22 09:12:11;;;;;;;19.67;12.30;;;;;;;13.37;100.00;100700.66;4984402;28;20092;-74
2023/04/22 09:14:37;;;;;;;20.20;11.93;;;;;;;13.46;100.00;100703.75;4985283;28;20104;-74
2023/04/22 09:17:02;;;;;;;17.85;11.70;;;;;;;13.53;100.00;100713.06;4977753;28;20026;-71
2023/04/22 09:19:28;;;;;;;17.60;11.50;;;;;;;13.64;100.00;100707.94;4984122;28;20061;-71
2023/04/22 09:21:57;;;;;;;19.83;11.52;;;;;;;13.73;100.00;100695.88;4983462;28;20115;-72
2023/04/22 09:24:22;;;;;;;18.73;12.23;;;;;;;13.85;100.00;100702.28;4988048;28;20042;-71
2023/04/22 09:26:54;;;;;;;19.70;12.48;;;;;;;13.97;100.00;100696.19;4983199;28;20069;-72
2023/04/22 09:29:22;;;;;;;18.08;11.93;;;;;;;14.13;100.00;100684.56;4985639;28;20034;-74
2023/04/22 09:31:49;;;;;;;16.98;11.60;;;;;;;14.17;100.00;100686.06;4983689;28;20139;-74
2023/04/22 09:34:14;;;;;;;17.95;11.02;;;;;;;14.23;100.00;100684.84;4987050;28;20033;-74
2023/04/22 09:36:42;;;;;;;16.00;10.80;;;;;;;14.32;100.00;100678.94;4985850;28;20044;-74
2023/04/22 09:39:07;;;;;;;14.60;10.75;;;;;;;14.37;100.00;100671.50;4983347;28;20789;-74
2023/04/22 09:41:35;;;;;;;15.85;10.63;;;;;;;14.44;100.00;100671.94;4986975;28;20069;-74
2023/04/22 09:44:02;;;;;;;15.68;10.70;;;;;;;14.56;100.00;100664.13;4989189;28;20087;-74
2023/04/22 09:46:30;;;;;;;15.60;10.57;;;;;;;14.60;100.00;100661.16;4984443;28;20100;-74
2023/04/22 09:48:57;;;;;;;14.55;10.38;;;;;;;14.64;100.00;100668.00;4987669;28;20401;-74
2023/04/22 09:51:23;;;;;;;16.30;11.10;;;;;;;14.69;100.00;100667.69;4985615;28;20804;-75
2023/04/22 09:54:04;;;;;;;13.30;10.05;;;;;;;14.71;100.00;100671.09;4969055;28;20049;-74
2023/04/22 09:56:42;;;;;;;18.27;10.57;;;;;;;14.83;100.00;100671.28;4988658;28;20054;-74
2023/04/22 09:59:08;;;;;;;16.48;10.68;;;;;;;14.93;100.00;100673.25;5001601;28;20038;-72
2023/04/22 10:01:39;;;;;;;14.98;10.32;;;;;;;15.03;100.00;100669.97;4980592;28;20041;-72
2023/04/22 10:04:07;;;;;;;15.30;9.48;;;;;;;15.03;100.00;100676.16;5002041;28;20076;-72
2023/04/22 10:06:33;;;;;;;13.40;9.85;;;;;;;15.08;100.00;100670.50;4987172;28;20038;-71
2023/04/22 10:08:58;;;;;;;14.80;10.18;;;;;;;15.18;100.00;100670.72;4985513;28;20045;-72
2023/04/22 10:11:24;;;;;;;16.05;10.15;;;;;;;15.22;100.00;100672.25;4987218;28;20487;-72
2023/04/22 10:13:50;;;;;;;15.50;10.45;;;;;;;15.31;100.00;100666.28;4988633;28;20034;-72
2023/04/22 10:16:19;;;;;;;14.15;9.40;;;;;;;15.30;100.00;100672.56;4985104;28;20061;-72
2023/04/22 10:18:45;;;;;;;15.77;10.50;;;;;;;15.32;100.00;100669.81;4997680;28;20041;-72
2023/04/22 10:21:11;;;;;;;12.90;9.48;;;;;;;15.32;100.00;100659.97;4987479;28;20040;-72
2023/04/22 10:23:37;;;;;;;13.52;9.20;;;;;;;15.32;100.00;100661.81;4985823;28;20057;-72
2023/04/22 10:26:04;;;;;;;14.73;9.90;;;;;;;15.32;100.00;100661.81;4987414;28;20057;-72
2023/04/22 10:28:29;;;;;;;13.85;9.80;;;;;;;15.34;100.00;100658.09;4987618;28;20038;-72
2023/04/22 10:30:55;;;;;;;12.43;9.48;;;;;;;15.32;100.00;100656.47;4987575;28;20053;-72
2023/04/22 10:33:26;;;;;;;17.17;10.57;;;;;;;15.27;100.00;100650.59;4984969;28;20058;-72
2023/04/22 10:36:17;;;;;;;13.75;9.60;;;;;;;15.19;100.00;100646.66;4968701;28;20081;-71
2023/04/22 10:38:49;;;;;;;14.65;10.15;;;;;;;15.13;100.00;100639.06;4986058;28;20041;-72
2023/04/22 10:41:15;;;;;;;14.60;9.77;;;;;;;15.13;100.00;100633.72;4987276;28;20037;-72
2023/04/22 10:43:46;;;;;;;15.90;10.63;;;;;;;15.17;100.00;100629.03;4988296;28;20038;-72
2023/04/22 10:46:34;;;;;;;17.13;10.13;;;;;;;15.25;100.00;100626.69;4998070;28;20112;-72
2023/04/22 10:49:07;;;;;;;14.20;9.27;;;;;;;15.31;100.00;100634.28;4985447;28;21624;-72
2023/04/22 10:51:39;;;;;;;13.70;9.70;;;;;;;15.26;100.00;100627.56;4998716;28;20044;-72
2023/04/22 10:54:05;;;;;;;;;;;;;;;15.26;100.00;100623.06;4986042;28;20037;-72
2023/04/22 10:56:31;;;;;;;15.35;9.18;;;;;;;15.27;100.00;100616.78;4987439;28;19923;-72
2023/04/22 10:58:56;;;;;;;15.48;10.32;;;;;;;15.35;100.00;100621.56;4987478;28;20077;-72
2023/04/22 11:01:22;;;;;;;14.50;9.32;;;;;;;15.39;100.00;100614.22;4986735;28;20042;-72
2023/04/22 11:03:50;;;;;;;14.23;9.75;;;;;;;15.43;100.00;100621.06;4987763;28;20115;-72
2023/04/22 11:06:21;;;;;;;12.85;8.18;;;;;;;15.48;100.00;100618.94;4967771;28;20040;-71
2023/04/22 11:08:48;;;;;;;15.95;9.32;;;;;;;15.53;100.00;100622.09;4984075;28;20046;-71
2023/04/22 11:11:16;;;;;;;13.82;8.52;;;;;;;15.58;100.00;100603.13;4983639;28;21002;-72